createdAt,value
2018-10-18T00:00:14.553Z,22.93
2018-10-18T00:01:14.267Z,22.9
2018-10-18T00:02:14.982Z,22.9
2018-10-18T00:03:14.516Z,22.93
2018-10-18T00:04:14.594Z,22.88
2018-10-18T00:05:14.112Z,22.94
2018-10-18T00:06:15.108Z,22.94
2018-10-18T00:07:14.681Z,22.96
2018-10-18T00:08:14.306Z,22.96
2018-10-18T00:10:14.242Z,23
2018-10-18T00:11:14.786Z,22.94
2018-10-18T00:12:14.871Z,22.91
2018-10-18T00:13:14.847Z,22.96
2018-10-18T00:14:14.759Z,22.85
2018-10-18T00:15:14.897Z,22.88
2018-10-18T00:16:14.858Z,22.84
2018-10-18T00:17:14.698Z,22.84
2018-10-18T00:18:14.958Z,22.85
2018-10-18T00:19:14.756Z,22.81
2018-10-18T00:20:15.464Z,22.91
2018-10-18T00:21:14.541Z,22.83
2018-10-18T00:22:14.581Z,22.96
2018-10-18T00:23:14.852Z,22.84
2018-10-18T00:24:15.062Z,22.84
2018-10-18T00:25:14.909Z,22.84
2018-10-18T00:26:15.634Z,22.94
2018-10-18T00:27:14.959Z,22.93
2018-10-18T00:28:14.735Z,22.84
2018-10-18T00:29:15.271Z,22.84
2018-10-18T00:30:15.313Z,22.83
2018-10-18T00:31:15.334Z,22.83
2018-10-18T00:32:15.406Z,22.8
2018-10-18T00:33:15.124Z,22.83
2018-10-18T00:34:15.150Z,22.85
2018-10-18T00:35:14.925Z,22.85
2018-10-18T00:36:15.971Z,22.85
2018-10-18T00:37:15.235Z,22.85
2018-10-18T00:38:15.862Z,22.85
2018-10-18T00:39:15.583Z,22.9
2018-10-18T00:40:15.574Z,22.81
2018-10-18T00:41:15.596Z,22.83
2018-10-18T00:42:16.115Z,22.76
2018-10-18T00:43:15.398Z,22.85
2018-10-18T00:44:16.049Z,22.78
2018-10-18T00:45:15.193Z,22.88
2018-10-18T00:46:15.940Z,22.78
2018-10-18T00:47:15.763Z,22.78
2018-10-18T00:48:15.819Z,22.87
2018-10-18T00:49:15.302Z,22.75
2018-10-18T00:50:15.413Z,22.75
2018-10-18T00:51:15.867Z,22.85
2018-10-18T00:52:15.381Z,22.87
2018-10-18T00:53:15.664Z,22.76
2018-10-18T00:54:15.556Z,22.76
2018-10-18T00:55:15.989Z,22.81
2018-10-18T00:56:16.438Z,22.72
2018-10-18T00:57:15.773Z,22.75
2018-10-18T00:58:16.061Z,22.88
2018-10-18T00:59:16.083Z,22.83
2018-10-18T01:00:16.507Z,22.78
2018-10-18T01:01:16.138Z,22.85
2018-10-18T01:02:16.517Z,22.75
2018-10-18T01:03:15.933Z,22.87
2018-10-18T01:04:16.220Z,22.83
2018-10-18T01:05:15.981Z,22.85
2018-10-18T01:06:16.720Z,22.78
2018-10-18T01:07:16.301Z,22.83
2018-10-18T01:08:16.750Z,22.85
2018-10-18T01:09:16.095Z,22.81
2018-10-18T01:10:15.863Z,22.83
2018-10-18T01:11:15.890Z,22.84
2018-10-18T01:12:17.001Z,22.84
2018-10-18T01:13:16.463Z,22.84
2018-10-18T01:14:16.893Z,22.8
2018-10-18T01:15:16.262Z,22.84
2018-10-18T01:16:16.544Z,22.83
2018-10-18T01:17:16.314Z,22.85
2018-10-18T01:18:16.920Z,22.8
2018-10-18T01:19:16.626Z,22.83
2018-10-18T01:20:17.081Z,22.84
2018-10-18T01:21:16.673Z,22.8
2018-10-18T01:22:16.710Z,22.84
2018-10-18T01:23:16.729Z,22.81
2018-10-18T01:24:17.164Z,22.83
2018-10-18T01:25:16.527Z,22.85
2018-10-18T01:26:17.109Z,22.81
2018-10-18T01:27:16.580Z,22.8
2018-10-18T01:28:16.873Z,22.84
2018-10-18T01:29:16.896Z,22.83
2018-10-18T01:30:16.968Z,22.83
2018-10-18T01:31:16.689Z,22.91
2018-10-18T01:32:16.866Z,22.84
2018-10-18T01:33:16.485Z,22.83
2018-10-18T01:34:16.774Z,22.83
2018-10-18T01:35:16.805Z,22.85
2018-10-18T01:36:17.553Z,22.87
2018-10-18T01:37:17.110Z,22.85
2018-10-18T01:38:17.588Z,22.76
2018-10-18T01:39:16.903Z,22.85
2018-10-18T01:40:16.681Z,22.81
2018-10-18T01:41:16.969Z,22.88
2018-10-18T01:42:17.136Z,22.78
2018-10-18T01:43:17.268Z,22.91
2018-10-18T01:44:17.749Z,22.81
2018-10-18T01:45:17.059Z,22.9
2018-10-18T01:46:17.347Z,22.73
2018-10-18T01:47:16.865Z,22.78
2018-10-18T01:48:17.536Z,22.87
2018-10-18T01:49:17.436Z,22.9
2018-10-18T01:50:17.767Z,22.75
2018-10-18T01:51:17.230Z,22.78
2018-10-18T01:52:16.999Z,22.75
2018-10-18T01:53:17.541Z,22.78
2018-10-18T01:54:17.577Z,22.73
2018-10-18T01:55:17.338Z,22.76
2018-10-18T01:56:17.917Z,22.81
2018-10-18T01:57:17.644Z,22.84
2018-10-18T01:58:17.163Z,22.83
2018-10-18T01:59:17.443Z,22.87
2018-10-18T02:00:18.154Z,22.85
2018-10-18T02:01:17.502Z,22.85
2018-10-18T02:02:18.180Z,22.75
2018-10-18T02:03:17.295Z,22.76
2018-10-18T02:04:17.843Z,22.76
2018-10-18T02:05:17.607Z,22.78
2018-10-18T02:06:18.228Z,22.73
2018-10-18T02:07:17.665Z,22.81
2018-10-18T02:08:18.475Z,22.83
2018-10-18T02:09:17.979Z,22.8
2018-10-18T02:10:17.743Z,22.81
2018-10-18T02:11:18.079Z,22.83
2018-10-18T02:12:18.566Z,22.75
2018-10-18T02:13:17.828Z,22.78
2018-10-18T02:14:18.097Z,22.75
2018-10-18T02:15:17.878Z,22.78
2018-10-18T02:16:17.903Z,22.73
2018-10-18T02:17:18.190Z,22.8
2018-10-18T02:18:18.658Z,22.78
2018-10-18T02:19:18.593Z,22.83
2018-10-18T02:20:17.755Z,22.75
2018-10-18T02:21:17.787Z,22.73
2018-10-18T02:22:18.320Z,22.76
2018-10-18T02:23:17.839Z,22.76
2018-10-18T02:24:18.646Z,22.7
2018-10-18T02:25:18.350Z,22.78
2018-10-18T02:26:18.166Z,22.8
2018-10-18T02:27:18.200Z,22.8
2018-10-18T02:28:18.501Z,22.73
2018-10-18T02:29:18.269Z,22.7
2018-10-18T02:30:19.049Z,22.83
2018-10-18T02:31:18.588Z,22.78
2018-10-18T02:32:18.342Z,22.75
2018-10-18T02:33:18.619Z,22.78
2018-10-18T02:34:18.388Z,22.76
2018-10-18T02:35:18.161Z,22.72
2018-10-18T02:36:18.684Z,22.8
2018-10-18T02:37:18.210Z,22.76
2018-10-18T02:38:18.752Z,22.63
2018-10-18T02:39:18.273Z,22.76
2018-10-18T02:40:18.808Z,22.78
2018-10-18T02:41:18.579Z,22.75
2018-10-18T02:42:19.287Z,22.78
2018-10-18T02:43:18.894Z,22.68
2018-10-18T02:44:18.447Z,22.68
2018-10-18T02:45:18.487Z,22.8
2018-10-18T02:46:18.707Z,22.76
2018-10-18T02:47:18.478Z,22.73
2018-10-18T02:48:19.407Z,22.73
2018-10-18T02:49:18.797Z,22.73
2018-10-18T02:50:19.076Z,22.76
2018-10-18T02:51:18.840Z,22.73
2018-10-18T02:52:19.126Z,22.81
2018-10-18T02:53:19.157Z,22.76
2018-10-18T02:54:19.617Z,22.68
2018-10-18T02:55:19.209Z,22.83
2018-10-18T02:56:18.975Z,22.78
2018-10-18T02:57:19.007Z,22.72
2018-10-18T02:58:19.032Z,22.75
2018-10-18T02:59:19.315Z,22.75
2018-10-18T03:00:19.680Z,22.76
2018-10-18T03:01:19.117Z,22.78
2018-10-18T03:02:19.145Z,22.7
2018-10-18T03:03:19.170Z,22.75
2018-10-18T03:04:19.199Z,22.76
2018-10-18T03:05:19.222Z,22.78
2018-10-18T03:06:19.952Z,22.72
2018-10-18T03:07:19.280Z,22.78
2018-10-18T03:08:19.301Z,22.73
2018-10-18T03:09:19.334Z,22.73
2018-10-18T03:10:19.625Z,22.75
2018-10-18T03:11:19.131Z,22.75
2018-10-18T03:12:20.263Z,22.59
2018-10-18T03:13:19.181Z,22.7
2018-10-18T03:14:19.725Z,22.7
2018-10-18T03:15:19.755Z,22.72
2018-10-18T03:16:19.959Z,22.75
2018-10-18T03:17:19.815Z,22.7
2018-10-18T03:18:19.772Z,22.72
2018-10-18T03:19:19.593Z,22.75
2018-10-18T03:20:19.380Z,22.75
2018-10-18T03:21:19.652Z,22.6
2018-10-18T03:22:19.935Z,22.72
2018-10-18T03:23:19.972Z,22.6
2018-10-18T03:24:19.633Z,22.75
2018-10-18T03:25:20.029Z,22.66
2018-10-18T03:26:19.526Z,22.72
2018-10-18T03:27:19.558Z,22.69
2018-10-18T03:28:19.587Z,22.7
2018-10-18T03:29:19.613Z,22.72
2018-10-18T03:30:19.706Z,22.73
2018-10-18T03:31:20.181Z,22.73
2018-10-18T03:32:19.980Z,22.68
2018-10-18T03:33:20.233Z,22.7
2018-10-18T03:34:20.001Z,22.63
2018-10-18T03:35:20.033Z,22.72
2018-10-18T03:36:20.748Z,22.7
2018-10-18T03:37:19.834Z,22.76
2018-10-18T03:38:20.106Z,22.75
2018-10-18T03:39:20.148Z,22.62
2018-10-18T03:40:20.423Z,22.73
2018-10-18T03:41:19.956Z,22.6
2018-10-18T03:42:20.826Z,22.73
2018-10-18T03:43:20.243Z,22.76
2018-10-18T03:44:20.531Z,22.7
2018-10-18T03:45:20.558Z,22.69
2018-10-18T03:46:20.581Z,22.72
2018-10-18T03:47:20.356Z,22.6
2018-10-18T03:48:26.649Z,22.76
2018-10-18T03:49:20.404Z,22.57
2018-10-18T03:50:20.439Z,22.65
2018-10-18T03:51:20.455Z,22.62
2018-10-18T03:52:20.486Z,22.57
2018-10-18T03:53:20.767Z,22.54
2018-10-18T03:54:20.917Z,22.53
2018-10-18T03:55:20.305Z,22.53
2018-10-18T03:56:20.595Z,22.5
2018-10-18T03:57:20.620Z,22.53
2018-10-18T03:58:20.651Z,22.45
2018-10-18T03:59:20.672Z,22.54
2018-10-18T04:00:20.939Z,22.5
2018-10-18T04:01:20.725Z,22.44
2018-10-18T04:02:20.498Z,22.5
2018-10-18T04:03:21.047Z,22.35
2018-10-18T04:04:20.816Z,22.51
2018-10-18T04:05:21.086Z,22.47
2018-10-18T04:06:21.092Z,22.41
2018-10-18T04:07:21.137Z,22.47
2018-10-18T04:08:21.174Z,22.41
2018-10-18T04:09:21.210Z,22.54
2018-10-18T04:10:20.712Z,22.36
2018-10-18T04:11:20.999Z,22.48
2018-10-18T04:12:21.852Z,22.5
2018-10-18T04:13:21.241Z,22.47
2018-10-18T04:14:21.336Z,22.43
2018-10-18T04:15:21.097Z,22.47
2018-10-18T04:16:20.875Z,22.44
2018-10-18T04:17:21.409Z,22.47
2018-10-18T04:18:20.995Z,22.5
2018-10-18T04:19:21.477Z,22.54
2018-10-18T04:20:21.232Z,22.47
2018-10-18T04:21:21.266Z,22.62
2018-10-18T04:22:21.298Z,22.47
2018-10-18T04:23:21.325Z,22.47
2018-10-18T04:24:21.583Z,22.47
2018-10-18T04:25:21.417Z,22.48
2018-10-18T04:26:21.400Z,22.51
2018-10-18T04:27:21.432Z,22.45
2018-10-18T04:28:21.718Z,22.41
2018-10-18T04:29:21.479Z,22.44
2018-10-18T04:30:22.344Z,22.39
2018-10-18T04:31:21.788Z,22.41
2018-10-18T04:32:21.555Z,22.39
2018-10-18T04:33:21.590Z,22.32
2018-10-18T04:34:21.613Z,22.45
2018-10-18T04:35:21.895Z,22.45
2018-10-18T04:36:21.942Z,22.43
2018-10-18T04:37:22.223Z,22.39
2018-10-18T04:38:21.728Z,22.44
2018-10-18T04:39:21.753Z,22.45
2018-10-18T04:40:21.522Z,22.45
2018-10-18T04:41:22.064Z,22.48
2018-10-18T04:42:22.340Z,22.53
2018-10-18T04:43:21.854Z,22.55
2018-10-18T04:44:21.881Z,22.51
2018-10-18T04:45:22.175Z,22.54
2018-10-18T04:46:22.189Z,22.55
2018-10-18T04:47:22.763Z,22.51
2018-10-18T04:48:22.670Z,22.55
2018-10-18T04:49:22.015Z,22.43
2018-10-18T04:50:22.043Z,22.5
2018-10-18T04:51:21.814Z,22.53
2018-10-18T04:52:22.095Z,22.54
2018-10-18T04:53:22.123Z,22.51
2018-10-18T04:54:22.154Z,22.44
2018-10-18T04:55:22.371Z,22.47
2018-10-18T04:56:22.467Z,22.47
2018-10-18T04:57:22.227Z,22.5
2018-10-18T04:58:22.008Z,22.36
2018-10-18T04:59:22.290Z,22.45
2018-10-18T05:00:22.310Z,22.47
2018-10-18T05:01:23.162Z,22.43
2018-10-18T05:02:22.113Z,22.43
2018-10-18T05:03:22.659Z,22.44
2018-10-18T05:04:22.421Z,22.43
2018-10-18T05:05:22.189Z,22.35
2018-10-18T05:06:22.556Z,22.43
2018-10-18T05:07:22.946Z,22.35
2018-10-18T05:08:22.806Z,22.39
2018-10-18T05:09:22.811Z,22.36
2018-10-18T05:10:22.604Z,22.29
2018-10-18T05:11:23.203Z,22.39
2018-10-18T05:12:22.635Z,22.3
2018-10-18T05:13:23.192Z,22.41
2018-10-18T05:14:22.690Z,22.36
2018-10-18T05:15:22.717Z,22.48
2018-10-18T05:16:23.003Z,22.43
2018-10-18T05:17:23.024Z,22.43
2018-10-18T05:18:22.794Z,22.45
2018-10-18T05:19:22.574Z,22.47
2018-10-18T05:20:22.600Z,22.47
2018-10-18T05:21:23.134Z,22.51
2018-10-18T05:22:22.648Z,22.54
2018-10-18T05:23:23.186Z,22.53
2018-10-18T05:24:22.702Z,22.53
2018-10-18T05:25:23.210Z,22.5
2018-10-18T05:26:22.763Z,22.51
2018-10-18T05:27:22.786Z,22.51
2018-10-18T05:28:23.331Z,22.48
2018-10-18T05:29:23.093Z,22.45
2018-10-18T05:30:22.870Z,22.5
2018-10-18T05:31:23.352Z,22.55
2018-10-18T05:32:23.172Z,22.54
2018-10-18T05:33:23.196Z,22.53
2018-10-18T05:34:23.479Z,22.5
2018-10-18T05:35:23.510Z,22.5
2018-10-18T05:36:23.538Z,22.5
2018-10-18T05:37:23.471Z,22.5
2018-10-18T05:38:23.589Z,22.43
2018-10-18T05:39:23.377Z,22.48
2018-10-18T05:40:23.396Z,22.5
2018-10-18T05:41:23.667Z,22.53
2018-10-18T05:42:23.181Z,22.45
2018-10-18T05:43:23.871Z,22.53
2018-10-18T05:44:23.232Z,22.47
2018-10-18T05:45:23.771Z,22.5
2018-10-18T05:46:23.796Z,22.5
2018-10-18T05:47:23.444Z,22.44
2018-10-18T05:48:23.603Z,22.53
2018-10-18T05:49:23.913Z,22.51
2018-10-18T05:50:23.911Z,22.48
2018-10-18T05:51:23.685Z,22.44
2018-10-18T05:52:23.705Z,22.43
2018-10-18T05:53:24.260Z,22.45
2018-10-18T05:54:23.935Z,22.38
2018-10-18T05:55:23.525Z,22.33
2018-10-18T05:56:23.813Z,22.35
2018-10-18T05:57:23.843Z,22.47
2018-10-18T05:58:24.121Z,22.38
2018-10-18T05:59:23.896Z,22.45
2018-10-18T06:00:24.198Z,22.41
2018-10-18T06:01:23.956Z,22.41
2018-10-18T06:02:23.971Z,22.33
2018-10-18T06:03:24.000Z,22.44
2018-10-18T06:04:24.284Z,22.39
2018-10-18T06:05:24.057Z,22.45
2018-10-18T06:06:24.328Z,22.45
2018-10-18T06:07:24.367Z,22.43
2018-10-18T06:08:24.131Z,22.43
2018-10-18T06:09:24.423Z,22.38
2018-10-18T06:10:24.394Z,22.38
2018-10-18T06:11:24.473Z,22.32
2018-10-18T06:12:24.498Z,22.35
2018-10-18T06:13:24.873Z,22.41
2018-10-18T06:14:24.034Z,22.3
2018-10-18T06:15:24.319Z,22.41
2018-10-18T06:16:24.358Z,22.33
2018-10-18T06:17:24.627Z,22.43
2018-10-18T06:18:24.664Z,22.41
2018-10-18T06:19:24.548Z,22.44
2018-10-18T06:20:24.717Z,22.33
2018-10-18T06:21:24.481Z,22.36
2018-10-18T06:22:24.766Z,22.38
2018-10-18T06:23:24.337Z,22.39
2018-10-18T06:24:24.831Z,22.38
2018-10-18T06:25:24.590Z,22.38
2018-10-18T06:26:24.629Z,22.33
2018-10-18T06:27:24.643Z,22.35
2018-10-18T06:28:24.920Z,22.36
2018-10-18T06:29:24.704Z,22.41
2018-10-18T06:30:24.725Z,22.28
2018-10-18T06:31:24.752Z,22.39
2018-10-18T06:32:24.521Z,22.38
2018-10-18T06:33:24.801Z,22.32
2018-10-18T06:34:24.831Z,22.28
2018-10-18T06:35:24.859Z,22.26
2018-10-18T06:36:24.883Z,22.28
2018-10-18T06:37:25.646Z,22.43
2018-10-18T06:38:24.934Z,22.33
2018-10-18T06:39:25.810Z,22.33
2018-10-18T06:40:24.994Z,22.29
2018-10-18T06:41:25.272Z,22.26
2018-10-18T06:42:25.040Z,22.26
2018-10-18T06:43:25.076Z,22.22
2018-10-18T06:44:25.352Z,22.29
2018-10-18T06:45:25.381Z,22.25
2018-10-18T06:46:25.154Z,22.23
2018-10-18T06:47:25.728Z,22.28
2018-10-18T06:48:24.951Z,22.23
2018-10-18T06:49:25.609Z,22.3
2018-10-18T06:50:25.520Z,22.22
2018-10-18T06:51:25.282Z,22.3
2018-10-18T06:52:25.578Z,22.29
2018-10-18T06:53:25.332Z,22.28
2018-10-18T06:54:25.376Z,22.29
2018-10-18T06:55:25.661Z,22.32
2018-10-18T06:56:25.417Z,22.3
2018-10-18T06:57:25.449Z,22.29
2018-10-18T06:58:25.729Z,22.28
2018-10-18T06:59:25.240Z,22.32
2018-10-18T07:00:25.678Z,22.22
2018-10-18T07:01:25.558Z,22.26
2018-10-18T07:02:25.835Z,22.14
2018-10-18T07:03:25.610Z,22.23
2018-10-18T07:04:25.890Z,22.23
2018-10-18T07:05:25.653Z,22.22
2018-10-18T07:06:25.688Z,22.23
2018-10-18T07:07:25.713Z,22.25
2018-10-18T07:08:25.992Z,22.17
2018-10-18T07:09:25.782Z,22.14
2018-10-18T07:10:25.798Z,22.2
2018-10-18T07:11:25.818Z,22.2
2018-10-18T07:12:26.103Z,22.22
2018-10-18T07:13:25.617Z,22.25
2018-10-18T07:14:25.903Z,22.2
2018-10-18T07:15:26.174Z,22.18
2018-10-18T07:16:25.953Z,22.18
2018-10-18T07:17:26.281Z,22.17
2018-10-18T07:18:26.262Z,22.22
2018-10-18T07:19:25.775Z,22.18
2018-10-18T07:20:26.055Z,22.22
2018-10-18T07:21:25.829Z,22.22
2018-10-18T07:22:26.110Z,22.25
2018-10-18T07:23:26.394Z,22.2
2018-10-18T07:24:26.425Z,22.25
2018-10-18T07:25:26.420Z,22.18
2018-10-18T07:26:26.214Z,22.23
2018-10-18T07:27:26.504Z,22.15
2018-10-18T07:28:26.021Z,22.2
2018-10-18T07:29:26.294Z,22.22
2018-10-18T07:30:26.324Z,22.22
2018-10-18T07:31:26.362Z,22.22
2018-10-18T07:32:26.372Z,22.23
2018-10-18T07:33:26.405Z,22.17
2018-10-18T07:34:26.432Z,22.17
2018-10-18T07:35:26.711Z,22.17
2018-10-18T07:36:26.735Z,22.17
2018-10-18T07:37:26.770Z,22.06
2018-10-18T07:38:26.793Z,22.15
2018-10-18T07:39:26.574Z,22.18
2018-10-18T07:40:26.843Z,22.14
2018-10-18T07:41:26.360Z,22.18
2018-10-18T07:42:26.646Z,22.14
2018-10-18T07:43:26.669Z,22.2
2018-10-18T07:44:26.947Z,22.11
2018-10-18T07:45:26.722Z,22.18
2018-10-18T07:46:26.492Z,22.23
2018-10-18T07:47:27.033Z,22.17
2018-10-18T07:48:26.804Z,22.13
2018-10-18T07:49:26.827Z,22.18
2018-10-18T07:50:27.314Z,22.17
2018-10-18T07:51:26.912Z,22.08
2018-10-18T07:52:26.911Z,22.13
2018-10-18T07:53:27.083Z,22.14
2018-10-18T07:54:26.970Z,22.17
2018-10-18T07:55:27.251Z,22.1
2018-10-18T07:56:26.761Z,22.18
2018-10-18T07:57:27.078Z,22.17
2018-10-18T07:58:26.815Z,22.15
2018-10-18T07:59:26.839Z,22.13
2018-10-18T08:00:26.906Z,22.17
2018-10-18T08:01:26.893Z,22.11
2018-10-18T08:02:27.174Z,22.15
2018-10-18T08:03:26.949Z,22.13
2018-10-18T08:04:27.230Z,22.14
2018-10-18T08:05:27.258Z,22.14
2018-10-18T08:06:27.280Z,22.07
2018-10-18T08:07:27.055Z,22.11
2018-10-18T08:08:27.589Z,22.15
2018-10-18T08:09:27.107Z,22.1
2018-10-18T08:10:27.390Z,22.1
2018-10-18T08:11:27.674Z,22.1
2018-10-18T08:12:27.440Z,22.06
2018-10-18T08:13:27.209Z,22.07
2018-10-18T08:14:27.491Z,22.13
2018-10-18T08:15:27.522Z,22.14
2018-10-18T08:16:27.546Z,22.11
2018-10-18T08:17:28.268Z,22.06
2018-10-18T08:18:27.598Z,22.1
2018-10-18T08:19:27.625Z,22.08
2018-10-18T08:20:27.656Z,22.02
2018-10-18T08:21:27.683Z,22.1
2018-10-18T08:22:27.784Z,22.13
2018-10-18T08:23:27.744Z,22.06
2018-10-18T08:24:27.758Z,22.06
2018-10-18T08:25:28.401Z,22.1
2018-10-18T08:26:27.816Z,22.07
2018-10-18T08:27:27.585Z,22.06
2018-10-18T08:28:28.129Z,22.11
2018-10-18T08:29:27.894Z,22.07
2018-10-18T08:30:27.922Z,22.07
2018-10-18T08:31:28.971Z,22.02
2018-10-18T08:32:27.979Z,22.08
2018-10-18T08:33:28.003Z,22.08
2018-10-18T08:34:28.036Z,21.95
2018-10-18T08:35:28.305Z,22.11
2018-10-18T08:36:28.084Z,22.08
2018-10-18T08:37:28.227Z,22.07
2018-10-18T08:38:28.398Z,22.02
2018-10-18T08:39:28.412Z,22.04
2018-10-18T08:40:28.448Z,21.96
2018-10-18T08:41:27.954Z,22.06
2018-10-18T08:42:28.501Z,22
2018-10-18T08:43:28.538Z,22.06
2018-10-18T08:44:28.566Z,22.04
2018-10-18T08:45:28.317Z,22
2018-10-18T08:46:28.609Z,22.1
2018-10-18T08:47:28.375Z,22.02
2018-10-18T08:48:28.406Z,22.06
2018-10-18T08:49:28.425Z,22.1
2018-10-18T08:50:28.196Z,21.95
2018-10-18T08:51:28.219Z,22
2018-10-18T08:52:28.247Z,21.98
2018-10-18T08:53:28.542Z,22.06
2018-10-18T08:54:28.604Z,22
2018-10-18T08:55:28.630Z,21.96
2018-10-18T08:56:28.612Z,22
2018-10-18T08:57:28.637Z,21.99
2018-10-18T08:58:28.923Z,22.02
2018-10-18T08:59:29.269Z,22
2018-10-18T09:00:28.972Z,21.93
2018-10-18T09:01:28.491Z,22.08
2018-10-18T09:02:28.770Z,22.08
2018-10-18T09:03:29.052Z,21.96
2018-10-18T09:04:29.291Z,22.04
2018-10-18T09:05:28.855Z,22.04
2018-10-18T09:06:28.876Z,22.08
2018-10-18T09:07:29.164Z,21.95
2018-10-18T09:08:28.928Z,22.04
2018-10-18T09:09:28.956Z,22.13
2018-10-18T09:10:29.249Z,21.99
2018-10-18T09:11:29.010Z,21.92
2018-10-18T09:12:29.049Z,21.98
2018-10-18T09:13:29.314Z,22.13
2018-10-18T09:14:29.091Z,22.02
2018-10-18T09:15:29.117Z,22
2018-10-18T09:16:29.393Z,22.04
2018-10-18T09:17:29.174Z,22
2018-10-18T09:18:28.943Z,22.11
2018-10-18T09:19:29.219Z,21.98
2018-10-18T09:20:28.991Z,22.07
2018-10-18T09:21:29.275Z,22.06
2018-10-18T09:22:29.559Z,22.07
2018-10-18T09:23:29.327Z,22.02
2018-10-18T09:24:29.363Z,21.98
2018-10-18T09:25:29.383Z,22.11
2018-10-18T09:26:29.664Z,22.07
2018-10-18T09:27:29.436Z,22.02
2018-10-18T09:28:29.463Z,22.02
2018-10-18T09:29:29.295Z,21.99
2018-10-18T09:30:30.138Z,21.98
2018-10-18T09:31:29.543Z,22.02
2018-10-18T09:32:29.836Z,22.08
2018-10-18T09:33:29.340Z,21.99
2018-10-18T09:34:29.624Z,21.98
2018-10-18T09:35:29.393Z,22.06
2018-10-18T09:36:29.674Z,22.02
2018-10-18T09:37:29.699Z,21.99
2018-10-18T09:38:30.302Z,22.02
2018-10-18T09:39:29.754Z,22.08
2018-10-18T09:40:29.782Z,22
2018-10-18T09:41:29.808Z,22.04
2018-10-18T09:42:29.578Z,22.04
2018-10-18T09:43:29.866Z,22.02
2018-10-18T09:44:30.494Z,22.02
2018-10-18T09:45:29.663Z,21.96
2018-10-18T09:46:29.944Z,21.98
2018-10-18T09:47:29.967Z,22.04
2018-10-18T09:48:29.749Z,21.95
2018-10-18T09:49:30.016Z,22
2018-10-18T09:50:30.047Z,21.98
2018-10-18T09:51:30.073Z,21.98
2018-10-18T09:52:30.101Z,21.99
2018-10-18T09:53:29.874Z,21.95
2018-10-18T09:54:30.173Z,21.96
2018-10-18T09:55:29.943Z,21.95
2018-10-18T09:56:30.465Z,21.93
2018-10-18T09:57:30.490Z,21.96
2018-10-18T09:58:30.262Z,21.93
2018-10-18T09:59:30.299Z,21.93
2018-10-18T10:00:30.574Z,21.93
2018-10-18T10:01:30.085Z,21.92
2018-10-18T10:02:30.372Z,21.96
2018-10-18T10:03:30.648Z,21.96
2018-10-18T10:04:30.418Z,21.93
2018-10-18T10:05:30.702Z,21.93
2018-10-18T10:06:30.731Z,21.95
2018-10-18T10:07:30.502Z,21.91
2018-10-18T10:08:30.275Z,21.93
2018-10-18T10:09:30.299Z,21.91
2018-10-18T10:10:30.835Z,21.96
2018-10-18T10:11:30.662Z,21.91
2018-10-18T10:12:30.379Z,21.89
2018-10-18T10:13:30.889Z,21.96
2018-10-18T10:14:30.891Z,21.91
2018-10-18T10:15:30.971Z,21.91
2018-10-18T10:16:30.747Z,21.91
2018-10-18T10:17:30.903Z,21.92
2018-10-18T10:18:30.792Z,21.96
2018-10-18T10:19:30.818Z,21.92
2018-10-18T10:20:30.591Z,21.93
2018-10-18T10:21:30.877Z,21.95
2018-10-18T10:22:30.897Z,21.91
2018-10-18T10:23:31.180Z,21.85
2018-10-18T10:24:31.119Z,21.96
2018-10-18T10:25:31.231Z,21.95
2018-10-18T10:26:31.262Z,21.95
2018-10-18T10:27:31.025Z,21.89
2018-10-18T10:28:31.316Z,21.91
2018-10-18T10:29:30.828Z,21.91
2018-10-18T10:30:31.473Z,21.96
2018-10-18T10:31:31.599Z,21.82
2018-10-18T10:32:31.162Z,21.91
2018-10-18T10:33:31.471Z,21.8
2018-10-18T10:34:31.215Z,21.93
2018-10-18T10:35:31.340Z,21.79
2018-10-18T10:36:31.012Z,21.85
2018-10-18T10:37:31.290Z,21.85
2018-10-18T10:38:31.329Z,21.88
2018-10-18T10:39:31.606Z,21.88
2018-10-18T10:40:31.634Z,21.83
2018-10-18T10:41:31.403Z,21.89
2018-10-18T10:42:31.169Z,21.83
2018-10-18T10:43:31.719Z,21.88
2018-10-18T10:44:31.925Z,21.79
2018-10-18T10:45:31.275Z,21.85
2018-10-18T10:46:31.535Z,21.92
2018-10-18T10:47:31.561Z,21.77
2018-10-18T10:48:31.335Z,21.91
2018-10-18T10:49:31.873Z,21.8
2018-10-18T10:50:31.641Z,21.91
2018-10-18T10:51:31.927Z,21.88
2018-10-18T10:52:31.438Z,21.85
2018-10-18T10:53:31.985Z,21.8
2018-10-18T10:54:32.005Z,21.8
2018-10-18T10:55:31.776Z,21.82
2018-10-18T10:56:31.539Z,21.82
2018-10-18T10:57:32.085Z,21.82
2018-10-18T10:58:31.857Z,21.85
2018-10-18T10:59:31.886Z,21.82
2018-10-18T11:00:32.173Z,21.89
2018-10-18T11:01:32.191Z,21.83
2018-10-18T11:02:31.959Z,21.82
2018-10-18T11:03:31.730Z,21.85
2018-10-18T11:04:31.759Z,21.91
2018-10-18T11:05:32.035Z,21.79
2018-10-18T11:06:32.320Z,21.77
2018-10-18T11:07:32.354Z,21.82
2018-10-18T11:08:32.380Z,21.82
2018-10-18T11:09:32.815Z,21.83
2018-10-18T11:10:32.170Z,21.82
2018-10-18T11:11:32.198Z,21.82
2018-10-18T11:12:32.909Z,21.85
2018-10-18T11:13:31.993Z,21.8
2018-10-18T11:14:32.536Z,21.83
2018-10-18T11:15:32.565Z,21.82
2018-10-18T11:16:32.332Z,21.82
2018-10-18T11:17:32.367Z,21.83
2018-10-18T11:18:32.643Z,21.88
2018-10-18T11:19:32.677Z,21.83
2018-10-18T11:20:32.692Z,21.8
2018-10-18T11:21:32.561Z,21.79
2018-10-18T11:22:32.485Z,21.8
2018-10-18T11:23:32.260Z,21.83
2018-10-18T11:24:32.573Z,21.77
2018-10-18T11:25:32.827Z,21.79
2018-10-18T11:26:32.852Z,21.79
2018-10-18T11:27:32.365Z,21.8
2018-10-18T11:28:32.649Z,21.77
2018-10-18T11:29:32.936Z,21.85
2018-10-18T11:30:32.709Z,21.75
2018-10-18T11:31:32.727Z,21.79
2018-10-18T11:32:33.013Z,21.77
2018-10-18T11:33:33.004Z,21.79
2018-10-18T11:34:33.354Z,21.88
2018-10-18T11:35:33.059Z,21.82
2018-10-18T11:36:32.833Z,21.83
2018-10-18T11:37:32.853Z,21.79
2018-10-18T11:38:32.885Z,21.85
2018-10-18T11:39:32.910Z,21.83
2018-10-18T11:40:33.190Z,21.82
2018-10-18T11:41:32.964Z,21.79
2018-10-18T11:42:33.449Z,21.82
2018-10-18T11:43:33.285Z,21.82
2018-10-18T11:44:33.046Z,21.82
2018-10-18T11:45:33.065Z,21.82
2018-10-18T11:46:33.351Z,21.85
2018-10-18T11:47:33.376Z,21.85
2018-10-18T11:48:33.155Z,21.79
2018-10-18T11:49:33.178Z,21.82
2018-10-18T11:50:33.202Z,21.79
2018-10-18T11:51:33.938Z,21.88
2018-10-18T11:52:33.505Z,21.77
2018-10-18T11:53:33.285Z,21.82
2018-10-18T11:54:33.307Z,21.77
2018-10-18T11:55:33.385Z,21.83
2018-10-18T11:56:33.113Z,21.82
2018-10-18T11:57:33.145Z,21.82
2018-10-18T11:58:33.662Z,21.83
2018-10-18T11:59:33.443Z,21.8
2018-10-18T12:00:33.211Z,21.85
2018-10-18T12:01:33.241Z,21.85
2018-10-18T12:02:33.720Z,21.82
2018-10-18T12:03:33.552Z,21.85
2018-10-18T12:04:33.837Z,21.79
2018-10-18T12:05:33.613Z,21.82
2018-10-18T12:06:33.633Z,21.85
2018-10-18T12:07:33.653Z,21.83
2018-10-18T12:08:33.690Z,21.85
2018-10-18T12:09:33.968Z,21.79
2018-10-18T12:10:33.736Z,21.8
2018-10-18T12:11:33.758Z,21.83
2018-10-18T12:12:33.536Z,21.85
2018-10-18T12:13:33.809Z,21.88
2018-10-18T12:14:34.093Z,21.79
2018-10-18T12:15:34.114Z,21.82
2018-10-18T12:16:34.156Z,21.85
2018-10-18T12:17:33.670Z,21.8
2018-10-18T12:18:34.188Z,21.79
2018-10-18T12:19:33.971Z,21.82
2018-10-18T12:20:34.004Z,21.82
2018-10-18T12:21:34.028Z,21.82
2018-10-18T12:22:34.300Z,21.79
2018-10-18T12:23:34.125Z,21.76
2018-10-18T12:24:34.096Z,21.76
2018-10-18T12:25:34.377Z,21.82
2018-10-18T12:26:34.412Z,21.79
2018-10-18T12:27:34.433Z,21.76
2018-10-18T12:28:33.963Z,21.82
2018-10-18T12:29:34.238Z,21.77
2018-10-18T12:30:34.259Z,21.79
2018-10-18T12:31:34.541Z,21.8
2018-10-18T12:32:34.314Z,21.76
2018-10-18T12:33:34.546Z,21.76
2018-10-18T12:34:34.622Z,21.77
2018-10-18T12:35:34.396Z,21.8
2018-10-18T12:36:34.673Z,21.83
2018-10-18T12:37:34.451Z,21.76
2018-10-18T12:38:34.484Z,21.83
2018-10-18T12:39:34.749Z,21.76
2018-10-18T12:40:34.916Z,21.75
2018-10-18T12:41:35.257Z,21.79
2018-10-18T12:42:34.591Z,21.82
2018-10-18T12:43:34.601Z,21.85
2018-10-18T12:44:34.889Z,21.83
2018-10-18T12:45:34.414Z,21.76
2018-10-18T12:46:34.687Z,21.77
2018-10-18T12:47:34.709Z,21.77
2018-10-18T12:48:34.499Z,21.79
2018-10-18T12:49:35.014Z,21.77
2018-10-18T12:50:34.795Z,21.76
2018-10-18T12:51:35.069Z,21.79
2018-10-18T12:52:35.095Z,21.79
2018-10-18T12:53:35.128Z,21.85
2018-10-18T12:54:34.727Z,21.76
2018-10-18T12:55:34.925Z,21.82
2018-10-18T12:56:34.704Z,21.76
2018-10-18T12:57:35.232Z,21.79